Time;durP1;ratioP1;P1;durP2;ratioP2;P2;SDS_P1;SDS_P2;PMS_P1;PMS_P2;Temp;Humidity;BMP_temperature;BMP_pressure;BME280_temperature;BME280_humidity;BME280_pressure;Samples;Min_cycle;Max_cycle;Signal;HPM_P1;HPM_P2
2021/04/04 00:02:10;;;;;;;26.55;4.20;;;;;;;10.19;49.38;102966.00;5035527;28;20061;-89
2021/04/04 00:04:36;;;;;;;15.10;3.42;;;;;;;10.19;49.50;102960.69;5034619;28;20431;-89
2021/04/04 00:07:03;;;;;;;16.73;3.63;;;;;;;10.06;49.85;102966.69;5034224;28;20033;-89
2021/04/04 00:09:29;;;;;;;12.25;3.22;;;;;;;10.21;49.09;102969.56;5034652;28;20029;-88
2021/04/04 00:11:56;;;;;;;15.32;3.55;;;;;;;9.97;49.80;102970.97;5034510;28;20040;-89
2021/04/04 00:14:23;;;;;;;13.00;3.50;;;;;;;10.13;49.37;102960.59;5034562;28;20029;-89
2021/04/04 00:16:49;;;;;;;16.33;3.83;;;;;;;10.15;49.20;102964.19;5034341;28;20461;-89
2021/04/04 00:19:16;;;;;;;18.40;3.97;;;;;;;9.92;49.72;102966.44;5033820;28;20029;-90
2021/04/04 00:21:42;;;;;;;23.27;3.47;;;;;;;10.09;49.26;102958.78;5033947;28;20030;-89
2021/04/04 00:24:09;;;;;;;13.23;3.35;;;;;;;10.14;49.29;102967.69;5034213;28;20060;-89
2021/04/04 00:26:36;;;;;;;18.10;3.63;;;;;;;10.06;49.52;102962.28;5034193;28;20044;-90
2021/04/04 00:29:07;;;;;;;13.88;3.53;;;;;;;10.15;49.30;102958.88;5034179;28;20112;-88
2021/04/04 00:31:35;;;;;;;15.48;3.53;;;;;;;10.02;49.39;102958.69;5033680;28;20025;-89
2021/04/04 00:34:01;;;;;;;14.32;3.38;;;;;;;9.99;49.44;102961.31;5034116;28;20037;-89
2021/04/04 00:36:28;;;;;;;13.27;3.03;;;;;;;10.07;49.21;102963.16;5033654;28;20556;-89
2021/04/04 00:38:55;;;;;;;17.02;3.88;;;;;;;9.98;49.47;102971.84;5033876;28;20034;-89
2021/04/04 00:41:22;;;;;;;15.27;3.45;;;;;;;9.98;49.58;102962.16;5033265;28;20028;-89
2021/04/04 00:43:48;;;;;;;23.60;4.40;;;;;;;9.99;49.06;102963.94;5033933;28;20079;-89
2021/04/04 00:46:15;;;;;;;13.10;2.80;;;;;;;9.98;49.06;102964.81;5034043;28;20030;-90
2021/04/04 00:48:42;;;;;;;20.20;4.10;;;;;;;9.91;49.03;102969.97;5035175;28;20346;-89
2021/04/04 00:51:08;;;;;;;13.88;3.97;;;;;;;9.80;49.76;102959.19;5033483;28;20120;-90
2021/04/04 00:53:35;;;;;;;16.58;4.45;;;;;;;10.01;49.21;102959.53;5033904;28;20033;-89
2021/04/04 00:56:02;;;;;;;8.05;2.90;;;;;;;10.12;48.97;102948.22;5033680;28;20025;-89
2021/04/04 00:58:28;;;;;;;19.05;3.80;;;;;;;10.16;48.78;102947.44;5033731;28;20025;-89
2021/04/04 01:00:55;;;;;;;13.75;5.13;;;;;;;10.14;49.22;102947.41;5033430;28;20037;-89
2021/04/04 01:03:21;;;;;;;10.43;3.40;;;;;;;10.17;48.85;102941.28;5033807;28;20040;-89
2021/04/04 01:05:49;;;;;;;16.38;3.65;;;;;;;10.05;49.08;102936.66;5033225;28;20044;-89
2021/04/04 01:08:15;;;;;;;19.58;4.05;;;;;;;10.12;48.66;102938.53;5033892;28;20033;-89
2021/04/04 01:10:46;;;;;;;10.32;2.97;;;;;;;10.22;48.43;102943.97;5033672;28;20083;-90
2021/04/04 01:13:43;;;;;;;13.73;4.18;;;;;;;10.30;48.45;102937.91;5033468;28;20030;-89
2021/04/04 01:16:19;;;;;;;12.38;3.13;;;;;;;10.22;48.56;102928.97;5033336;28;20465;-89
2021/04/04 01:19:01;;;;;;;9.27;2.92;;;;;;;10.16;49.19;102935.06;5033414;28;20021;-90
2021/04/04 01:21:39;;;;;;;15.85;3.13;;;;;;;10.27;48.88;102937.88;5033441;28;20056;-89
2021/04/04 01:24:19;;;;;;;11.50;3.42;;;;;;;10.26;49.32;102936.09;5033385;28;20116;-89
2021/04/04 01:29:29;;;;;;;12.95;3.08;;;;;;;10.34;49.26;102934.47;5088296;28;20414;-89
2021/04/04 01:31:57;;;;;;;14.23;3.50;;;;;;;10.27;49.24;102943.19;5070806;28;20427;-89
2021/04/04 01:34:26;;;;;;;12.20;3.38;;;;;;;10.28;49.23;102939.66;5070562;28;20079;-88
2021/04/04 01:36:59;;;;;;;18.15;3.90;;;;;;;10.32;49.28;102930.88;5070653;28;20456;-89
2021/04/04 01:39:29;;;;;;;9.27;3.47;;;;;;;10.29;49.65;102932.59;5070431;28;20059;-89
2021/04/04 01:41:59;;;;;;;9.70;2.88;;;;;;;10.25;49.88;102938.72;5070879;28;20032;-89
2021/04/04 01:44:26;;;;;;;11.35;3.30;;;;;;;10.28;49.66;102922.88;5070426;28;20039;-88
2021/04/04 01:46:56;;;;;;;10.20;3.38;;;;;;;10.25;50.17;102920.19;5070910;28;20032;-89
2021/04/04 01:49:26;;;;;;;10.73;3.60;;;;;;;10.19;50.10;102920.97;5070604;28;20020;-88
2021/04/04 01:51:53;;;;;;;16.85;3.35;;;;;;;10.19;50.37;102918.31;5070391;28;20490;-89
2021/04/04 01:54:21;;;;;;;8.50;2.60;;;;;;;10.32;49.37;102915.00;5070591;28;20032;-89
2021/04/04 01:56:48;;;;;;;11.88;3.10;;;;;;;10.29;49.73;102911.41;5070509;28;20067;-89
2021/04/04 01:59:18;;;;;;;9.55;2.65;;;;;;;10.25;49.69;102912.22;5070282;28;20059;-89
2021/04/04 02:01:46;;;;;;;15.63;3.20;;;;;;;10.28;49.65;102913.19;5070163;28;20375;-89
2021/04/04 02:04:15;;;;;;;12.20;3.15;;;;;;;10.27;49.36;102902.53;5070540;28;20593;-89
2021/04/04 02:06:46;;;;;;;7.53;2.80;;;;;;;10.27;49.89;102911.38;5069876;28;20040;-89
2021/04/04 02:09:15;;;;;;;13.57;3.72;;;;;;;10.27;49.84;102895.50;5069856;28;20041;-89
2021/04/04 02:11:44;;;;;;;10.32;3.80;;;;;;;10.18;49.37;102904.19;5069809;28;20162;-89
2021/04/04 02:14:14;;;;;;;11.20;2.97;;;;;;;9.87;50.02;102905.50;5070030;28;20032;-89
2021/04/04 02:16:43;;;;;;;9.00;2.92;;;;;;;10.13;49.67;102892.66;5069880;28;20114;-89
2021/04/04 02:19:14;;;;;;;7.47;1.90;;;;;;;10.02;49.96;102895.13;5069838;28;20496;-88
2021/04/04 02:21:42;;;;;;;7.68;2.25;;;;;;;10.10;49.58;102891.72;5069618;28;20028;-89
2021/04/04 02:24:09;;;;;;;13.95;2.70;;;;;;;10.11;49.51;102886.41;5069674;28;20494;-88
2021/04/04 02:26:36;;;;;;;13.73;2.70;;;;;;;10.13;49.72;102886.44;5069664;28;20033;-89
2021/04/04 02:29:05;;;;;;;10.57;2.40;;;;;;;10.14;50.22;102888.22;5069122;28;20376;-89
2021/04/04 02:31:37;;;;;;;14.75;2.45;;;;;;;10.06;50.48;102885.47;5069439;28;20107;-90
2021/04/04 02:34:10;;;;;;;6.18;2.40;;;;;;;9.97;50.48;102896.81;5069345;28;20031;-89
2021/04/04 02:36:38;;;;;;;6.47;2.28;;;;;;;9.95;50.33;102897.66;5069295;28;20029;-89
2021/04/04 02:39:13;;;;;;;8.20;2.22;;;;;;;9.96;50.24;102892.38;5065250;28;20450;-89
2021/04/04 02:41:42;;;;;;;7.50;2.00;;;;;;;9.91;50.61;102886.13;5056173;28;20086;-89
2021/04/04 02:44:09;;;;;;;8.73;2.10;;;;;;;10.02;50.50;102883.66;5056064;28;20029;-89
2021/04/04 02:46:38;;;;;;;11.98;2.50;;;;;;;9.98;50.88;102888.00;5056316;28;20112;-89
2021/04/04 02:49:09;;;;;;;6.30;2.05;;;;;;;10.10;50.74;102882.00;5056187;28;20432;-89
2021/04/04 02:51:41;;;;;;;10.18;2.60;;;;;;;10.07;50.37;102870.44;5056050;28;20212;-89
2021/04/04 02:54:10;;;;;;;11.23;2.90;;;;;;;10.01;50.40;102872.16;5056346;28;20060;-89
2021/04/04 02:56:40;;;;;;;16.65;3.03;;;;;;;9.93;50.47;102873.81;5055715;28;20021;-88
2021/04/04 02:59:17;;;;;;;8.63;2.45;;;;;;;10.06;50.29;102874.88;5056482;28;20434;-89
2021/04/04 03:01:46;;;;;;;11.55;2.70;;;;;;;10.11;50.03;102878.47;5055749;28;20337;-88
2021/04/04 03:04:14;;;;;;;13.65;2.95;;;;;;;10.06;50.47;102876.66;5055889;28;20036;-88
2021/04/04 03:06:43;;;;;;;13.15;3.10;;;;;;;10.09;49.82;102877.56;5055675;28;20500;-88
2021/04/04 03:09:11;;;;;;;11.23;3.13;;;;;;;9.85;50.48;102873.66;5056157;28;20037;-89
2021/04/04 03:11:39;;;;;;;10.95;2.75;;;;;;;9.60;51.02;102868.88;5055700;28;20126;-89
2021/04/04 03:14:09;;;;;;;21.88;4.15;;;;;;;9.52;51.05;102866.97;5055562;28;20021;-89
2021/04/04 03:16:37;;;;;;;17.00;3.78;;;;;;;9.56;50.71;102865.28;5055591;28;20033;-88
2021/04/04 03:19:05;;;;;;;12.63;3.13;;;;;;;9.51;51.00;102864.31;5055327;28;20036;-89
2021/04/04 03:21:33;;;;;;;17.27;3.30;;;;;;;9.48;51.39;102858.94;5055372;28;20047;-89
2021/04/04 03:24:00;;;;;;;7.93;2.67;;;;;;;9.53;51.21;102855.53;5055296;28;20116;-89
2021/04/04 03:26:28;;;;;;;15.95;3.45;;;;;;;9.53;51.24;102857.25;5055268;28;20033;-89
2021/04/04 03:28:56;;;;;;;14.82;3.30;;;;;;;9.52;50.66;102860.78;5055741;28;20037;-89
2021/04/04 03:31:23;;;;;;;10.43;3.92;;;;;;;9.50;51.23;102858.09;5055125;28;20037;-89
2021/04/04 03:33:50;;;;;;;17.10;3.15;;;;;;;9.47;50.64;102858.06;5055562;28;20021;-89
2021/04/04 03:36:18;;;;;;;8.75;3.42;;;;;;;9.58;50.60;102858.22;5054824;28;20519;-89
2021/04/04 03:38:48;;;;;;;11.80;3.38;;;;;;;9.58;51.00;102860.88;5055233;28;20071;-88
2021/04/04 03:41:15;;;;;;;15.38;3.63;;;;;;;9.59;51.19;102856.50;5054863;28;20025;-89
2021/04/04 03:43:45;;;;;;;11.35;3.90;;;;;;;9.57;51.04;102858.22;5054797;28;20029;-89
2021/04/04 03:46:14;;;;;;;14.10;5.03;;;;;;;9.49;50.76;102860.75;5054773;28;20044;-89
2021/04/04 03:48:44;;;;;;;11.95;4.32;;;;;;;9.45;50.79;102864.19;5054773;28;20438;-89
2021/04/04 03:51:11;;;;;;;13.13;4.72;;;;;;;9.40;51.10;102861.47;5054212;28;20542;-88
2021/04/04 03:53:42;;;;;;;14.23;4.20;;;;;;;9.49;50.93;102856.31;5054964;28;20093;-89
2021/04/04 03:56:14;;;;;;;11.82;4.20;;;;;;;9.53;50.83;102852.88;5054674;28;20029;-88
2021/04/04 03:58:42;;;;;;;16.25;4.53;;;;;;;9.54;51.09;102851.13;5054772;28;20033;-89
2021/04/04 04:01:11;;;;;;;17.90;5.20;;;;;;;9.37;51.16;102857.03;5054516;28;20036;-88
2021/04/04 04:03:39;;;;;;;16.38;4.88;;;;;;;9.45;50.59;102853.63;5054723;28;20546;-89
2021/04/04 04:06:10;;;;;;;16.92;4.28;;;;;;;9.35;50.79;102852.56;5054477;28;20029;-89
2021/04/04 04:08:38;;;;;;;11.00;3.65;;;;;;;9.45;50.30;102854.50;5054515;28;20037;-88
2021/04/04 04:11:07;;;;;;;12.73;3.85;;;;;;;9.51;50.82;102859.03;5054326;28;20037;-89
2021/04/04 04:13:36;;;;;;;13.23;4.47;;;;;;;9.52;50.32;102856.38;5054476;28;20464;-88
2021/04/04 04:16:04;;;;;;;9.52;3.72;;;;;;;9.53;50.88;102846.69;5054450;28;20029;-89
2021/04/04 04:18:31;;;;;;;11.15;2.85;;;;;;;9.51;50.64;102848.44;5054511;28;20476;-89
2021/04/04 04:20:58;;;;;;;12.65;3.22;;;;;;;9.48;50.65;102848.38;5054507;28;20035;-89
2021/04/04 04:23:26;;;;;;;10.95;3.22;;;;;;;9.51;50.95;102859.03;5054170;28;20025;-88
2021/04/04 04:25:54;;;;;;;6.80;2.80;;;;;;;9.51;51.08;102851.97;5054579;28;20534;-88
2021/04/04 04:28:23;;;;;;;10.75;2.90;;;;;;;9.59;51.08;102851.19;5054162;28;20343;-89
2021/04/04 04:30:49;;;;;;;12.02;2.65;;;;;;;9.57;50.76;102848.53;5054230;28;20098;-88
2021/04/04 04:33:19;;;;;;;14.85;3.05;;;;;;;9.54;51.24;102849.38;5054272;28;20040;-89
2021/04/04 04:35:48;;;;;;;11.25;2.92;;;;;;;9.44;51.16;102843.91;5054178;28;20091;-89
2021/04/04 04:38:17;;;;;;;8.75;3.50;;;;;;;9.51;50.75;102843.13;5053978;28;20545;-89
2021/04/04 04:40:45;;;;;;;8.95;2.50;;;;;;;9.62;50.51;102833.63;5053888;28;20029;-88
2021/04/04 04:43:16;;;;;;;8.55;3.65;;;;;;;9.55;50.88;102840.53;5053734;28;20036;-89
2021/04/04 04:45:43;;;;;;;14.55;3.40;;;;;;;9.61;51.44;102828.28;5054319;28;20048;-89
2021/04/04 04:48:10;;;;;;;9.45;3.50;;;;;;;9.58;50.89;102823.81;5053779;28;20036;-88
2021/04/04 04:50:37;;;;;;;16.40;3.15;;;;;;;9.62;50.73;102823.03;5053838;28;20028;-89
2021/04/04 04:53:04;;;;;;;15.95;3.17;;;;;;;9.62;51.35;102824.75;5054218;28;20031;-89
2021/04/04 04:55:33;;;;;;;13.15;3.05;;;;;;;9.63;50.73;102826.56;5056472;28;20088;-90
2021/04/04 04:58:00;;;;;;;7.28;3.08;;;;;;;9.63;51.37;102827.47;5056866;28;20040;-89
2021/04/04 05:00:27;;;;;;;10.25;2.80;;;;;;;9.66;50.73;102822.19;5055528;28;20039;-89
2021/04/04 05:02:54;;;;;;;8.45;2.70;;;;;;;9.65;50.91;102817.78;5053813;28;20479;-89
2021/04/04 05:05:21;;;;;;;13.93;2.92;;;;;;;9.67;51.11;102817.78;5054629;28;20411;-89
2021/04/04 05:07:49;;;;;;;10.10;3.05;;;;;;;9.65;51.41;102814.25;5053717;28;20025;-89
2021/04/04 05:10:17;;;;;;;15.10;3.33;;;;;;;9.57;50.99;102822.06;5053792;28;20090;-89
2021/04/04 05:12:52;;;;;;;10.40;3.75;;;;;;;9.65;50.67;102820.41;5054120;28;20112;-89
2021/04/04 05:15:23;;;;;;;12.15;3.70;;;;;;;9.64;51.20;102823.91;5054201;28;20082;-88
2021/04/04 05:17:49;;;;;;;11.85;3.25;;;;;;;9.57;51.40;102832.66;5053882;28;20043;-89
2021/04/04 05:20:18;;;;;;;16.88;3.53;;;;;;;9.64;51.18;102825.69;5054160;28;20037;-89
2021/04/04 05:22:45;;;;;;;7.35;3.00;;;;;;;9.63;51.17;102827.47;5054342;28;20112;-89
2021/04/04 05:25:12;;;;;;;6.85;2.75;;;;;;;9.59;51.00;102815.03;5054313;28;20540;-88
2021/04/04 05:27:38;;;;;;;14.93;3.55;;;;;;;9.65;51.14;102815.13;5054024;28;20037;-89
2021/04/04 05:30:10;;;;;;;13.13;3.88;;;;;;;9.71;51.01;102820.50;5053843;28;20025;-88
2021/04/04 05:32:52;;;;;;;8.40;3.92;;;;;;;9.79;51.23;102825.03;5054290;28;20029;-89
2021/04/04 05:35:23;;;;;;;7.43;3.13;;;;;;;9.70;51.00;102823.16;5054188;28;20025;-89
2021/04/04 05:37:51;;;;;;;13.85;4.15;;;;;;;9.69;50.92;102831.94;5055232;28;20541;-89
2021/04/04 05:40:23;;;;;;;8.63;3.25;;;;;;;9.70;51.46;102824.03;5055194;28;20052;-89
2021/04/04 05:42:56;;;;;;;10.98;4.47;;;;;;;9.67;51.21;102829.28;5067651;28;20100;-89
2021/04/04 05:45:47;;;;;;;14.73;3.63;;;;;;;9.65;50.61;102828.34;5074072;28;20025;-88
2021/04/04 05:51:29;;;;;;;12.20;5.38;;;;;;;9.56;50.52;102830.88;5097586;27;20390;-88
2021/04/04 05:56:50;;;;;;;15.57;5.13;;;;;;;9.63;50.59;102822.16;5111955;27;20396;-88
2021/04/04 05:59:35;;;;;;;12.98;6.28;;;;;;;9.66;50.70;102826.63;5090695;28;20060;-89
2021/04/04 06:08:17;;;;;;;12.18;6.13;;;;;;;10.03;50.14;102829.78;5091103;27;20456;-88
2021/04/04 06:11:00;;;;;;;16.98;5.35;;;;;;;9.71;51.39;102828.44;5059141;28;20041;-88
2021/04/04 06:13:37;;;;;;;13.38;4.80;;;;;;;9.89;50.90;102829.59;5050771;28;20027;-88
2021/04/04 06:24:52;;;;;;;10.73;3.35;;;;;;;9.78;52.42;102826.81;5090951;27;20404;-89
2021/04/04 06:27:31;;;;;;;7.35;2.75;;;;;;;9.71;52.75;102824.94;5071034;28;20029;-89
2021/04/04 06:30:20;;;;;;;9.38;2.60;;;;;;;9.69;52.75;102816.97;5064942;28;20037;-89
2021/04/04 06:33:00;;;;;;;8.80;2.17;;;;;;;9.65;53.09;102825.72;5050864;28;20489;-89
2021/04/04 06:35:38;;;;;;;8.63;2.45;;;;;;;9.49;54.03;102828.97;5050544;28;20384;-89
2021/04/04 06:38:34;;;;;;;14.88;2.80;;;;;;;9.65;53.62;102831.00;5050873;28;20307;-90
2021/04/04 06:44:14;;;;;;;4.90;1.83;;;;;;;9.63;53.36;102827.47;5111001;27;20359;-89
2021/04/04 06:52:31;;;;;;;7.63;2.55;;;;;;;9.52;52.39;102839.59;5090984;27;20411;-89
2021/04/04 06:58:10;;;;;;;4.22;2.45;;;;;;;9.54;52.00;102828.22;5091168;27;20408;-89
2021/04/04 07:00:49;;;;;;;10.70;2.15;;;;;;;9.63;52.12;102830.09;5059562;28;20041;-89
2021/04/04 07:03:20;;;;;;;5.88;2.13;;;;;;;9.57;51.66;102827.38;5050569;28;20048;-90
2021/04/04 07:06:26;;;;;;;12.50;2.03;;;;;;;9.62;51.24;102833.63;5050508;28;20152;-90
2021/04/04 07:09:20;;;;;;;6.28;2.20;;;;;;;9.70;51.00;102825.78;5050347;28;20111;-89
2021/04/04 07:12:26;;;;;;;6.85;2.20;;;;;;;9.79;50.93;102817.97;5050481;28;20069;-89
2021/04/04 07:15:26;;;;;;;6.70;2.28;;;;;;;9.96;50.20;102820.00;5050270;28;20071;-89
2021/04/04 07:18:27;;;;;;;5.13;2.65;;;;;;;10.06;49.97;102815.72;5050607;28;20306;-89
2021/04/04 07:30:29;;;;;;;5.57;2.58;;;;;;;10.26;48.60;102816.88;5144057;27;20710;-89
2021/04/04 07:33:09;;;;;;;10.25;3.55;;;;;;;10.34;48.68;102811.66;5110971;28;20051;-89
2021/04/04 07:36:01;;;;;;;11.60;3.40;;;;;;;10.42;48.76;102810.03;5111157;28;20028;-89
2021/04/04 07:38:53;;;;;;;12.60;3.00;;;;;;;10.50;48.59;102796.88;5110986;28;20089;-89
2021/04/04 07:44:23;;;;;;;14.73;4.03;;;;;;;10.61;48.70;102808.50;5089963;28;20408;-88
2021/04/04 07:49:56;;;;;;;12.63;4.30;;;;;;;10.40;48.80;102800.28;5085490;27;20406;-88
2021/04/04 07:52:48;;;;;;;13.40;3.75;;;;;;;10.33;48.31;102808.13;5070637;28;20364;-88
2021/04/04 07:55:19;;;;;;;11.80;3.55;;;;;;;10.23;48.75;102797.38;5070489;28;20102;-88
2021/04/04 08:00:25;;;;;;;15.27;4.40;;;;;;;10.33;48.77;102796.63;5081919;27;20395;-89
2021/04/04 08:03:03;;;;;;;12.63;3.50;;;;;;;10.48;48.54;102803.91;5071185;28;20147;-89
2021/04/04 08:05:35;;;;;;;11.45;3.88;;;;;;;10.32;48.88;102803.69;5070883;28;20186;-88
2021/04/04 08:08:08;;;;;;;10.13;3.78;;;;;;;10.47;48.34;102803.03;5070628;28;20032;-89
2021/04/04 08:10:47;;;;;;;15.60;5.82;;;;;;;10.29;48.63;102813.38;5070633;28;20426;-89
2021/04/04 08:13:54;;;;;;;11.13;4.35;;;;;;;10.51;48.04;102810.13;5070653;28;20202;-89
2021/04/04 08:16:43;;;;;;;12.30;4.05;;;;;;;10.41;47.84;102810.91;5070184;28;20480;-89
2021/04/04 08:19:11;;;;;;;11.75;4.28;;;;;;;10.57;48.09;102809.34;5070265;28;20399;-89
2021/04/04 08:21:46;;;;;;;13.07;4.78;;;;;;;10.58;48.41;102805.81;5070561;28;20033;-89
2021/04/04 08:24:22;;;;;;;10.05;4.03;;;;;;;10.63;47.79;102804.09;5070372;28;20037;-89
2021/04/04 08:27:02;;;;;;;11.63;4.80;;;;;;;10.60;47.84;102803.19;5070349;28;20053;-89
2021/04/04 08:29:39;;;;;;;18.85;4.45;;;;;;;10.52;48.01;102800.44;5068585;28;20047;-89
2021/04/04 08:32:10;;;;;;;10.90;3.58;;;;;;;10.53;48.26;102802.22;5070457;28;20463;-89
2021/04/04 08:34:56;;;;;;;18.08;4.38;;;;;;;10.75;47.63;102799.81;5070156;28;20031;-89
2021/04/04 08:37:31;;;;;;;12.68;3.53;;;;;;;10.78;47.10;102802.47;5070336;28;20060;-89
2021/04/04 08:40:05;;;;;;;13.77;3.80;;;;;;;10.77;47.64;102796.28;5070288;28;20040;-89
2021/04/04 08:42:34;;;;;;;7.95;4.03;;;;;;;10.84;47.07;102802.53;5070566;28;20028;-88
2021/04/04 08:47:51;;;;;;;6.88;3.33;;;;;;;10.95;47.43;102795.63;5090849;27;20376;-88
2021/04/04 08:50:20;;;;;;;13.57;4.43;;;;;;;11.16;46.89;102791.38;5063558;28;20040;-88
2021/04/04 08:52:50;;;;;;;13.80;3.60;;;;;;;11.24;47.15;102787.03;5050655;28;20460;-88
2021/04/04 08:55:25;;;;;;;12.13;4.50;;;;;;;11.31;46.70;102787.94;5050694;28;20033;-88
2021/04/04 08:57:53;;;;;;;12.52;4.90;;;;;;;11.26;46.67;102787.91;5050941;28;20124;-88
2021/04/04 09:00:23;;;;;;;10.52;4.00;;;;;;;11.27;47.04;102791.47;5051784;28;20084;-88
2021/04/04 09:03:08;;;;;;;17.05;4.90;;;;;;;11.29;47.06;102784.38;5050887;28;20026;-88
2021/04/04 09:05:35;;;;;;;14.60;4.50;;;;;;;11.25;46.60;102782.59;5050468;28;20032;-88
2021/04/04 09:08:04;;;;;;;8.52;3.83;;;;;;;11.30;46.22;102776.47;5050223;28;20026;-88
2021/04/04 09:10:35;;;;;;;17.45;4.85;;;;;;;11.50;46.46;102762.44;5050419;28;20028;-89
2021/04/04 09:13:07;;;;;;;14.32;4.47;;;;;;;11.47;46.20;102765.06;5050292;28;20476;-89
2021/04/04 09:15:46;;;;;;;13.13;4.70;;;;;;;11.47;46.49;102762.41;5050678;28;20468;-89
2021/04/04 09:18:14;;;;;;;11.90;4.57;;;;;;;11.43;45.92;102765.94;5050274;28;20140;-88
2021/04/04 09:20:44;;;;;;;9.93;4.68;;;;;;;11.57;46.16;102774.00;5050188;28;20108;-89
2021/04/04 09:23:12;;;;;;;12.68;4.32;;;;;;;11.56;46.07;102766.91;5050104;28;20422;-89
2021/04/04 09:25:48;;;;;;;8.48;4.75;;;;;;;11.52;45.62;102773.09;5049739;28;20025;-89
2021/04/04 09:28:15;;;;;;;11.38;4.15;;;;;;;11.45;46.67;102766.81;5050251;28;20535;-89
2021/04/04 09:30:45;;;;;;;12.23;4.68;;;;;;;11.41;46.03;102773.00;5050313;28;20538;-89
2021/04/04 09:33:16;;;;;;;12.10;4.35;;;;;;;11.38;46.10;102762.38;5049930;28;20036;-88
2021/04/04 09:35:45;;;;;;;8.63;4.80;;;;;;;11.38;45.83;102767.69;5049693;28;20033;-89
2021/04/04 09:38:15;;;;;;;10.18;4.80;;;;;;;11.49;46.10;102758.03;5050088;28;20487;-89
2021/04/04 09:40:42;;;;;;;10.45;4.53;;;;;;;11.62;45.72;102765.16;5049958;28;20025;-88
2021/04/04 09:45:49;;;;;;;10.35;4.50;;;;;;;11.59;44.98;102762.50;5090839;27;20401;-89
2021/04/04 09:48:20;;;;;;;13.75;4.47;;;;;;;11.70;45.11;102759.03;5071033;28;20480;-89
2021/04/04 09:50:47;;;;;;;12.07;4.45;;;;;;;11.73;44.99;102759.94;5059045;28;20029;-89
2021/04/04 09:53:34;;;;;;;11.00;4.60;;;;;;;11.84;44.76;102756.44;5050866;28;20111;-89
2021/04/04 09:58:48;;;;;;;15.43;5.03;;;;;;;12.05;44.68;102750.38;5091141;27;20401;-88
2021/04/04 10:06:40;;;;;;;11.77;5.38;;;;;;;12.15;44.26;102730.97;5090735;27;20852;-88
2021/04/04 10:09:12;;;;;;;10.15;4.50;;;;;;;12.12;43.81;102742.47;5070585;28;20091;-88
2021/04/04 10:11:39;;;;;;;13.20;4.63;;;;;;;12.28;44.18;102738.06;5052172;28;20508;-88
2021/04/04 10:14:09;;;;;;;15.57;4.30;;;;;;;12.36;44.03;102734.56;5050823;28;20026;-88
2021/04/04 10:16:36;;;;;;;16.27;5.20;;;;;;;12.34;44.17;102731.03;5050447;28;20033;-88
2021/04/04 10:22:01;;;;;;;13.65;5.10;;;;;;;12.37;43.78;102731.00;5152166;27;20356;-88
2021/04/04 10:24:38;;;;;;;13.68;5.40;;;;;;;12.57;44.00;102716.00;5152792;27;20104;-88
2021/04/04 10:27:34;;;;;;;15.25;5.05;;;;;;;12.74;44.13;102725.78;5152862;27;20440;-88
2021/04/04 10:30:18;;;;;;;10.30;5.40;;;;;;;12.71;43.81;102721.34;5142869;27;20035;-88
2021/04/04 10:32:48;;;;;;;11.57;4.70;;;;;;;12.75;44.42;102723.09;5152508;27;20023;-88
2021/04/04 10:35:30;;;;;;;14.10;4.85;;;;;;;12.52;43.94;102715.09;5152480;27;20039;-88
2021/04/04 10:38:06;;;;;;;14.05;5.03;;;;;;;12.53;43.76;102706.22;5152248;27;20376;-89
2021/04/04 10:43:39;;;;;;;18.05;5.55;;;;;;;12.66;44.48;102700.94;5111463;27;20351;-88
2021/04/04 10:48:46;;;;;;;11.85;4.72;;;;;;;12.59;43.64;102703.59;5089785;28;20401;-90
2021/04/04 10:51:15;;;;;;;12.43;5.13;;;;;;;12.40;43.38;102699.09;5055906;28;20108;-89
2021/04/04 10:53:43;;;;;;;17.83;5.05;;;;;;;12.45;44.06;102692.94;5050854;28;20031;-88
2021/04/04 10:56:11;;;;;;;9.50;5.22;;;;;;;12.53;44.13;102695.59;5050509;28;20384;-89
2021/04/04 10:58:39;;;;;;;13.02;5.68;;;;;;;12.61;43.62;102687.63;5050480;28;20067;-89
2021/04/04 11:01:10;;;;;;;11.93;4.18;;;;;;;12.71;42.71;102680.53;5050341;28;20029;-90
2021/04/04 11:03:37;;;;;;;11.82;4.50;;;;;;;12.67;43.57;102670.78;5050349;28;20025;-89
2021/04/04 11:06:05;;;;;;;9.52;3.80;;;;;;;12.64;43.02;102662.84;5050807;28;20033;-88
2021/04/04 11:08:31;;;;;;;11.48;4.75;;;;;;;12.70;43.46;102662.84;5050293;28;20121;-88
2021/04/04 11:10:58;;;;;;;11.60;4.80;;;;;;;12.73;42.56;102660.16;5050167;28;20021;-89
2021/04/04 11:13:25;;;;;;;10.38;4.50;;;;;;;12.86;42.50;102650.41;5050455;28;20029;-88
2021/04/04 11:16:08;;;;;;;13.45;4.57;;;;;;;12.99;41.35;102652.16;5050242;28;20484;-89
2021/04/04 11:21:24;;;;;;;14.15;5.65;;;;;;;12.89;42.21;102648.63;5131742;27;20353;-89
2021/04/04 11:23:50;;;;;;;12.68;5.05;;;;;;;13.00;42.62;102645.97;5131988;27;20520;-89
2021/04/04 11:26:22;;;;;;;12.40;5.13;;;;;;;13.21;42.14;102639.72;5131785;27;20036;-88
2021/04/04 11:29:08;;;;;;;12.50;4.90;;;;;;;13.29;41.95;102628.16;5131550;27;20072;-90
2021/04/04 11:31:36;;;;;;;14.63;5.93;;;;;;;13.29;42.13;102631.72;5131637;27;20043;-88
2021/04/04 11:34:24;;;;;;;14.45;4.70;;;;;;;13.03;41.91;102634.44;5132097;27;20028;-89
2021/04/04 11:36:51;;;;;;;13.35;4.80;;;;;;;13.07;41.91;102633.53;5131507;27;20481;-88
2021/04/04 11:39:18;;;;;;;12.43;5.40;;;;;;;13.02;41.74;102630.00;5131744;27;20077;-89
2021/04/04 11:41:55;;;;;;;12.10;4.72;;;;;;;13.25;41.72;102617.50;5131364;28;20131;-89
2021/04/04 11:44:29;;;;;;;16.42;5.38;;;;;;;13.32;41.93;102617.50;5131416;27;20019;-89
2021/04/04 11:47:00;;;;;;;13.63;5.10;;;;;;;13.47;41.62;102605.94;5131573;27;20035;-89
2021/04/04 11:49:38;;;;;;;12.95;4.75;;;;;;;13.50;41.09;102606.81;5131125;27;20110;-89
2021/04/04 11:54:56;;;;;;;7.88;4.57;;;;;;;13.71;40.51;102605.84;5090850;27;20427;-88
2021/04/04 11:57:30;;;;;;;15.07;5.07;;;;;;;13.73;40.61;102604.06;5070486;28;20387;-88
2021/04/04 12:00:16;;;;;;;10.05;4.65;;;;;;;14.13;39.92;102597.63;5066604;28;20120;-88
2021/04/04 12:03:01;;;;;;;13.77;5.90;;;;;;;14.17;39.27;102594.03;5050499;28;20031;-88
2021/04/04 12:05:34;;;;;;;15.00;6.40;;;;;;;14.16;39.71;102589.59;5050771;28;20488;-88
2021/04/04 12:08:01;;;;;;;12.07;5.25;;;;;;;14.11;39.93;102583.41;5050558;28;20033;-88
2021/04/04 12:10:30;;;;;;;11.05;5.10;;;;;;;13.96;39.63;102586.19;5050301;28;20033;-87
2021/04/04 12:12:57;;;;;;;13.75;5.95;;;;;;;13.96;39.52;102588.84;5050608;28;20037;-88
2021/04/04 12:15:26;;;;;;;16.75;5.50;;;;;;;13.88;39.92;102579.13;5050683;28;20025;-88
2021/04/04 12:20:39;;;;;;;15.05;5.65;;;;;;;14.21;40.07;102574.44;5110899;27;20363;-87
2021/04/04 12:23:11;;;;;;;16.10;5.50;;;;;;;14.34;39.46;102569.91;5111602;28;20381;-88
2021/04/04 12:25:37;;;;;;;11.98;5.20;;;;;;;14.11;40.03;102572.75;5111644;28;20050;-88
2021/04/04 12:28:04;;;;;;;14.40;5.13;;;;;;;14.27;39.52;102559.28;5111318;28;20493;-88
2021/04/04 12:33:20;;;;;;;9.82;4.95;;;;;;;14.33;39.26;102545.91;5090685;27;20412;-88
2021/04/04 12:38:27;;;;;;;12.77;4.70;;;;;;;14.31;39.02;102531.72;5090812;27;20481;-89
2021/04/04 12:40:56;;;;;;;11.20;5.85;;;;;;;14.39;39.50;102524.53;5059327;28;20029;-88
2021/04/04 12:43:23;;;;;;;11.43;5.57;;;;;;;14.49;39.27;102538.66;5050260;28;20036;-89
2021/04/04 12:45:49;;;;;;;14.30;5.43;;;;;;;14.68;39.18;102526.97;5050547;28;20021;-89
2021/04/04 12:48:19;;;;;;;13.73;5.25;;;;;;;14.51;38.79;102529.75;5050606;28;20140;-89
2021/04/04 12:50:57;;;;;;;17.40;5.38;;;;;;;14.44;38.74;102521.81;5050578;28;20029;-89
2021/04/04 12:53:35;;;;;;;13.20;5.53;;;;;;;14.53;39.34;102517.28;5050618;28;20041;-89
2021/04/04 12:56:01;;;;;;;8.65;4.85;;;;;;;14.67;39.27;102502.97;5050442;28;20095;-88
2021/04/04 12:58:30;;;;;;;8.88;5.50;;;;;;;14.53;39.23;102509.28;5050719;28;20037;-89
2021/04/04 13:00:57;;;;;;;15.70;5.03;;;;;;;14.30;38.90;102497.97;5050344;28;20464;-89
2021/04/04 13:03:30;;;;;;;13.40;5.65;;;;;;;14.51;39.69;102487.06;5051011;28;20029;-89
2021/04/04 13:05:56;;;;;;;11.20;5.55;;;;;;;14.71;38.97;102484.22;5050250;28;20037;-89
2021/04/04 13:11:11;;;;;;;13.90;5.82;;;;;;;14.90;38.29;102489.34;5109227;27;20168;-88
2021/04/04 13:16:16;;;;;;;13.35;5.32;;;;;;;14.82;37.85;102475.22;5071066;28;20876;-88
2021/04/04 13:21:25;;;;;;;13.25;6.03;;;;;;;14.34;38.45;102475.69;5074978;28;20398;-87